createdAt,value
2022-11-22T00:03:07.170Z,95.7
2022-11-22T00:08:11.666Z,95.5
2022-11-22T00:13:16.204Z,95.4
2022-11-22T00:18:19.774Z,95.4
2022-11-22T00:23:24.310Z,95.3
2022-11-22T00:28:28.807Z,95.5
2022-11-22T00:33:33.378Z,95.6
2022-11-22T00:38:36.912Z,95.5
2022-11-22T00:43:41.404Z,95.2
2022-11-22T00:48:45.992Z,95.2
2022-11-22T00:53:49.493Z,95.3
2022-11-22T00:58:54.037Z,95.4
2022-11-22T01:03:58.628Z,96.1
2022-11-22T01:09:02.126Z,96.5
2022-11-22T01:14:06.694Z,96.6
2022-11-22T01:19:11.240Z,96.8
2022-11-22T01:24:14.731Z,96.9
2022-11-22T01:29:19.274Z,97
2022-11-22T01:34:22.844Z,97.4
2022-11-22T01:39:27.652Z,97.6
2022-11-22T01:44:31.903Z,97.6
2022-11-22T01:49:35.505Z,97.5
2022-11-22T01:54:39.998Z,97.7
2022-11-22T01:59:44.532Z,97.4
2022-11-22T02:04:48.143Z,97.6
2022-11-22T02:09:52.617Z,97.2
2022-11-22T02:14:57.156Z,97.2
2022-11-22T02:20:01.756Z,97.5
2022-11-22T02:25:05.242Z,97.9
2022-11-22T02:30:09.788Z,98
2022-11-22T02:35:14.345Z,97.9
2022-11-22T02:40:17.857Z,97.6
2022-11-22T02:45:22.453Z,96.5
2022-11-22T02:50:26.929Z,96.4
2022-11-22T02:55:30.452Z,95.8
2022-11-22T03:00:35.056Z,95.3
2022-11-22T03:05:39.571Z,95.3
2022-11-22T03:10:43.099Z,95.2
2022-11-22T03:15:47.611Z,95.3
2022-11-22T03:20:52.208Z,95.5
2022-11-22T03:25:56.700Z,95.5
2022-11-22T03:31:00.239Z,95.4
2022-11-22T03:36:04.814Z,95.9
2022-11-22T03:41:09.312Z,96.2
2022-11-22T03:46:12.874Z,96.1
2022-11-22T03:51:17.419Z,96.9
2022-11-22T03:56:21.926Z,96.8
2022-11-22T04:01:25.518Z,96.9
2022-11-22T04:06:30.050Z,96.5
2022-11-22T04:11:34.541Z,96.3
2022-11-22T04:16:38.082Z,95.8
2022-11-22T04:21:42.640Z,96.2
2022-11-22T04:26:47.192Z,95.1
2022-11-22T04:31:51.845Z,94.5
2022-11-22T04:36:56.384Z,93.9
2022-11-22T04:42:00.882Z,94.5
2022-11-22T04:47:05.415Z,93.1
2022-11-22T04:52:09.009Z,91.9
2022-11-22T04:57:13.509Z,91.4
2022-11-22T05:02:18.026Z,90.6
2022-11-22T05:07:22.777Z,90.6
2022-11-22T05:12:27.222Z,90.4
2022-11-22T05:17:31.776Z,91.2
2022-11-22T05:22:35.337Z,91
2022-11-22T05:27:39.885Z,91.7
2022-11-22T05:32:44.387Z,92.3
2022-11-22T05:37:48.927Z,93.4
2022-11-22T05:42:52.477Z,94.2
2022-11-22T05:47:56.023Z,94.5
2022-11-22T05:53:00.582Z,91.7
2022-11-22T05:58:05.091Z,88.7
2022-11-22T06:03:08.664Z,88.7
2022-11-22T06:08:13.211Z,88.5
2022-11-22T06:13:17.709Z,87.7
2022-11-22T06:18:22.256Z,87.7
2022-11-22T06:23:25.861Z,87.6
2022-11-22T06:28:30.329Z,90
2022-11-22T06:33:34.958Z,91.7
2022-11-22T06:38:38.498Z,93.5
2022-11-22T06:43:48.226Z,94
2022-11-22T06:48:47.523Z,94.7
2022-11-22T06:53:51.125Z,95.4
2022-11-22T06:58:55.642Z,94.2
2022-11-22T07:04:00.391Z,94.4
2022-11-22T07:09:03.739Z,94.4
2022-11-22T07:14:09.494Z,94
2022-11-22T07:19:12.786Z,94.9
2022-11-22T07:24:17.350Z,93.3
2022-11-22T07:29:20.825Z,92.8
2022-11-22T07:34:25.390Z,92.5
2022-11-22T07:39:30.306Z,91.8
2022-11-22T07:44:33.519Z,91.9
2022-11-22T07:49:38.016Z,91.3
2022-11-22T07:54:42.678Z,90
2022-11-22T07:59:46.068Z,89.6
2022-11-22T08:04:50.633Z,90
2022-11-22T08:09:55.276Z,89.8
2022-11-22T08:14:58.708Z,90
2022-11-22T08:20:03.243Z,89.8
2022-11-22T08:25:07.903Z,89
2022-11-22T08:30:12.346Z,87.6
2022-11-22T08:35:15.888Z,86.3
2022-11-22T08:40:20.505Z,85.6
2022-11-22T08:45:24.894Z,85.7
2022-11-22T08:50:28.449Z,85.3
2022-11-22T08:55:33.121Z,84.9
2022-11-22T09:00:37.531Z,84.4
2022-11-22T09:10:45.779Z,81.4
2022-11-22T09:15:50.163Z,80.8
2022-11-22T09:20:53.713Z,80.5
2022-11-22T09:25:58.352Z,80.5
2022-11-22T09:31:02.784Z,80.1
2022-11-22T09:36:07.309Z,80.5
2022-11-22T09:41:12.091Z,79.9
2022-11-22T09:46:16.466Z,78.8
2022-11-22T09:51:21.022Z,79.3
2022-11-22T09:56:24.734Z,79.9
2022-11-22T10:01:28.259Z,79.9
2022-11-22T10:06:32.687Z,81.6
2022-11-22T10:11:37.317Z,80.7
2022-11-22T10:16:41.731Z,82.8
2022-11-22T10:21:46.373Z,83.6
2022-11-22T10:26:51.020Z,83.4
2022-11-22T10:31:55.490Z,83.5
2022-11-22T10:36:59.023Z,82.8
2022-11-22T10:42:03.667Z,80.3
2022-11-22T10:47:08.122Z,81.8
2022-11-22T10:52:11.613Z,82.4
2022-11-22T10:57:16.259Z,82.4
2022-11-22T11:02:20.671Z,83
2022-11-22T11:07:24.349Z,82.6
2022-11-22T11:12:28.912Z,82.3
2022-11-22T11:17:33.299Z,82.2
2022-11-22T11:23:12.523Z,81.9
2022-11-22T11:27:41.483Z,82.7
2022-11-22T11:32:45.902Z,83
2022-11-22T11:37:50.483Z,82.5
2022-11-22T11:42:54.120Z,81
2022-11-22T11:47:58.547Z,81.5
2022-11-22T11:53:03.077Z,82
2022-11-22T11:58:06.748Z,81.9
2022-11-22T12:03:11.130Z,82
2022-11-22T12:08:15.700Z,81.8
2022-11-22T12:13:19.407Z,81.8
2022-11-22T12:18:23.810Z,81.1
2022-11-22T12:23:28.290Z,80.3
2022-11-22T12:28:32.887Z,80.7
2022-11-22T12:33:36.417Z,81.3
2022-11-22T12:38:40.925Z,81.9
2022-11-22T12:43:45.581Z,82.4
2022-11-22T12:48:49.394Z,82.1
2022-11-22T12:53:53.558Z,81.4
2022-11-22T12:58:58.185Z,81.5
2022-11-22T13:04:02.724Z,81.3
2022-11-22T13:09:07.299Z,81.3
2022-11-22T13:14:15.206Z,81.1
2022-11-22T13:19:15.364Z,81.1
2022-11-22T13:24:19.903Z,80
2022-11-22T13:29:24.550Z,81.2
2022-11-22T13:34:29.279Z,81.3
2022-11-22T13:39:32.519Z,81.8
2022-11-22T13:44:37.082Z,81.8
2022-11-22T13:49:47.978Z,81.3
2022-11-22T13:54:45.244Z,80.3
2022-11-22T13:59:49.775Z,80.8
2022-11-22T14:04:54.206Z,80.7
2022-11-22T14:09:57.769Z,81.4
2022-11-22T14:15:02.400Z,82.3
2022-11-22T14:20:05.879Z,82.7
2022-11-22T14:25:10.571Z,83.6
2022-11-22T14:30:15.019Z,83.9
2022-11-22T14:35:18.445Z,84
2022-11-22T14:40:22.998Z,84.7
2022-11-22T14:45:27.622Z,85
2022-11-22T14:50:31.035Z,85.3
2022-11-22T14:55:35.616Z,85.6
2022-11-22T15:00:40.289Z,86
2022-11-22T15:09:21.752Z,86.8
2022-11-22T15:10:48.348Z,86.6
2022-11-22T16:01:30.755Z,86.1
2022-11-22T16:06:35.354Z,87.2
2022-11-22T16:11:38.885Z,87.5
2022-11-22T16:16:43.551Z,88
2022-11-22T16:21:47.984Z,88.2
2022-11-22T16:26:52.504Z,88.5
2022-11-22T16:31:56.106Z,88.8
2022-11-22T16:37:00.565Z,89.1
2022-11-22T16:42:05.117Z,89.6
2022-11-22T16:47:08.673Z,89.9
2022-11-22T16:52:13.204Z,90.2
2022-11-22T16:57:17.735Z,90.3
2022-11-22T17:06:10.924Z,90.5
2022-11-22T17:11:15.357Z,90.7
2022-11-22T17:16:19.880Z,91
2022-11-22T17:21:23.554Z,91.7
2022-11-22T17:26:27.953Z,91.7
2022-11-22T17:31:32.488Z,91.8
2022-11-22T17:36:36.158Z,91.7
2022-11-22T17:41:40.530Z,91.9
2022-11-22T17:46:45.102Z,92.7
2022-11-22T17:51:48.816Z,93.1
2022-11-22T17:56:53.186Z,93.1
2022-11-22T18:01:57.730Z,93.5
2022-11-22T18:07:01.284Z,93.7
2022-11-22T18:12:05.809Z,93.6
2022-11-22T18:17:10.336Z,93.3
2022-11-22T18:22:15.044Z,93.4
2022-11-22T18:27:18.462Z,93.2
2022-11-22T18:32:22.039Z,93.1
2022-11-22T18:37:26.704Z,92.8
2022-11-22T18:42:31.075Z,93.1
2022-11-22T18:47:34.625Z,93
2022-11-22T18:52:39.275Z,93.4
2022-11-22T18:57:43.706Z,93.5
2022-11-22T19:02:48.246Z,93.6
2022-11-22T19:07:51.936Z,94
2022-11-22T19:12:56.364Z,93.9
2022-11-22T19:18:00.833Z,93.7
2022-11-22T19:23:04.517Z,93.7
2022-11-22T19:28:08.914Z,93.2
2022-11-22T19:33:13.442Z,93.5
2022-11-22T19:38:17.145Z,93.6
2022-11-22T19:43:21.518Z,93.6
2022-11-22T19:48:26.079Z,93.7
2022-11-22T19:53:29.797Z,93.7
2022-11-22T19:58:34.177Z,94
2022-11-22T20:03:38.682Z,94.1
2022-11-22T20:08:43.342Z,93.7
2022-11-22T20:13:46.772Z,93.8
2022-11-22T20:18:51.304Z,93.6
2022-11-22T20:23:55.985Z,93.8
2022-11-22T20:29:00.520Z,93.9
2022-11-22T20:34:05.059Z,93.8
2022-11-22T20:39:10.867Z,94.1
2022-11-22T20:44:13.128Z,94.4
2022-11-22T20:49:17.677Z,94.6
2022-11-22T20:54:22.335Z,94.7
2022-11-22T20:59:25.742Z,94.7
2022-11-22T21:04:30.660Z,94.8
2022-11-22T21:09:34.953Z,94.9
2022-11-22T21:14:39.321Z,94.7
2022-11-22T21:19:42.928Z,94.7
2022-11-22T21:24:47.574Z,94.8
2022-11-22T21:29:51.961Z,95.1
2022-11-22T21:34:56.644Z,95.2
2022-11-22T21:40:01.255Z,95
2022-11-22T21:45:05.725Z,95
2022-11-22T21:50:11.837Z,95.2
2022-11-22T21:55:13.908Z,95.1
2022-11-22T22:00:18.293Z,94.9
2022-11-22T22:05:21.846Z,94.9
2022-11-22T22:10:26.534Z,94.7
2022-11-22T22:15:30.907Z,94.5
2022-11-22T22:20:35.451Z,94.3
2022-11-22T22:25:39.135Z,94
2022-11-22T22:30:43.540Z,93.7
2022-11-22T22:35:48.089Z,93.6
2022-11-22T22:40:51.812Z,93.6
2022-11-22T22:45:55.212Z,93.4
2022-11-22T22:50:59.770Z,93.2
2022-11-22T22:56:04.341Z,93.2
2022-11-22T23:01:08.819Z,92.7
2022-11-22T23:06:12.350Z,92.8
2022-11-22T23:11:17.018Z,92.1
2022-11-22T23:16:21.430Z,92.1
2022-11-22T23:21:24.992Z,91.4
2022-11-22T23:26:29.664Z,90.8
2022-11-22T23:31:34.022Z,90.7
2022-11-22T23:36:40.883Z,90
2022-11-22T23:41:42.255Z,89.7
2022-11-22T23:46:46.685Z,89.6
2022-11-22T23:51:50.190Z,89
2022-11-22T23:56:55.050Z,89.1
